createdAt,value
2024-03-01T00:00:02.256Z,9.280024
2024-03-01T00:01:02.316Z,9.280005
2024-03-01T00:02:02.277Z,9.280122
2024-03-01T00:03:02.187Z,9.279904
2024-03-01T00:04:02.188Z,9.279920
2024-03-01T00:05:02.133Z,9.279969
2024-03-01T00:06:02.126Z,9.280001
2024-03-01T00:07:02.181Z,9.279844
2024-03-01T00:08:02.209Z,9.279845
2024-03-01T00:09:02.092Z,9.279922
2024-03-01T00:10:02.216Z,9.279650
2024-03-01T00:11:02.078Z,9.279098
2024-03-01T00:12:02.036Z,9.279198
2024-03-01T00:13:02.111Z,9.279447
2024-03-01T00:14:02.039Z,9.279606
2024-03-01T00:15:01.971Z,9.279369
2024-03-01T00:16:02.044Z,9.279347
2024-03-01T00:17:01.980Z,9.279408
2024-03-01T00:18:01.968Z,9.279489
2024-03-01T00:19:01.932Z,9.279583
2024-03-01T00:20:01.877Z,9.279876
2024-03-01T00:21:01.862Z,9.279772
2024-03-01T00:22:01.906Z,9.279711
2024-03-01T00:23:01.797Z,9.279561
2024-03-01T00:24:01.956Z,9.279556
2024-03-01T00:25:01.842Z,9.279639
2024-03-01T00:26:01.888Z,9.279698
2024-03-01T00:27:01.739Z,9.279971
2024-03-01T00:28:01.754Z,9.279865
2024-03-01T00:29:01.730Z,9.279903
2024-03-01T00:30:01.678Z,9.279866
2024-03-01T00:31:01.702Z,9.279799
2024-03-01T00:32:01.667Z,9.279802
2024-03-01T00:33:01.682Z,9.279855
2024-03-01T00:34:01.623Z,9.279910
2024-03-01T00:35:01.620Z,9.279953
2024-03-01T00:36:01.581Z,9.279881
2024-03-01T00:37:01.621Z,9.279875
2024-03-01T00:38:01.544Z,9.279872
2024-03-01T00:39:01.548Z,9.279918
2024-03-01T00:40:01.617Z,9.279944
2024-03-01T00:41:01.485Z,9.279991
2024-03-01T00:42:01.556Z,9.279960
2024-03-01T00:43:01.536Z,9.279965
2024-03-01T00:44:01.418Z,9.279972
2024-03-01T00:45:01.396Z,9.279988
2024-03-01T00:46:02.446Z,9.279972
2024-03-01T00:47:01.391Z,9.279882
2024-03-01T00:48:01.388Z,9.279837
2024-03-01T00:49:01.360Z,9.279868
2024-03-01T00:50:01.323Z,9.279836
2024-03-01T00:51:01.290Z,9.279802
2024-03-01T00:52:01.355Z,9.279811
2024-03-01T00:53:01.264Z,9.279786
2024-03-01T00:54:01.234Z,9.279772
2024-03-01T00:55:01.249Z,9.279855
2024-03-01T00:56:01.225Z,9.279926
2024-03-01T00:57:01.228Z,9.280010
2024-03-01T00:58:01.293Z,9.280010
2024-03-01T00:59:01.170Z,9.279974
2024-03-01T01:00:01.242Z,9.279952
2024-03-01T01:01:01.159Z,9.279889
2024-03-01T01:02:01.213Z,9.279917
2024-03-01T01:03:01.147Z,9.279830
2024-03-01T01:04:01.101Z,9.279819
2024-03-01T01:05:01.082Z,9.279852
2024-03-01T01:06:01.047Z,9.279815
2024-03-01T01:07:01.664Z,9.279890
2024-03-01T01:08:01.121Z,9.279835
2024-03-01T01:09:00.975Z,9.279840
2024-03-01T01:10:00.989Z,9.279855
2024-03-01T01:11:00.971Z,9.279832
2024-03-01T01:12:00.962Z,9.279735
2024-03-01T01:13:00.962Z,9.279796
2024-03-01T01:14:01.010Z,9.279905
2024-03-01T01:15:00.886Z,9.279968
2024-03-01T01:16:00.910Z,9.279879
2024-03-01T01:17:00.815Z,9.279870
2024-03-01T01:18:00.881Z,9.279938
2024-03-01T01:19:00.835Z,9.279909
2024-03-01T01:20:00.783Z,9.279913
2024-03-01T01:21:00.734Z,9.279860
2024-03-01T01:22:00.750Z,9.279858
2024-03-01T01:23:00.721Z,9.279819
2024-03-01T01:24:00.713Z,9.279833
2024-03-01T01:25:00.731Z,9.279806
2024-03-01T01:26:00.672Z,9.279834
2024-03-01T01:27:00.632Z,9.279893
2024-03-01T01:28:00.717Z,9.279997
2024-03-01T01:29:00.627Z,9.279861
2024-03-01T01:30:00.652Z,9.279860
2024-03-01T01:31:00.568Z,9.279942
2024-03-01T01:32:00.545Z,9.279896
2024-03-01T01:33:00.552Z,9.279865
2024-03-01T01:34:00.591Z,9.279844
2024-03-01T01:35:00.563Z,9.279950
2024-03-01T01:36:00.478Z,9.279992
2024-03-01T01:37:00.480Z,9.280035
2024-03-01T01:38:01.504Z,9.280048
2024-03-01T01:39:00.445Z,9.279961
2024-03-01T01:40:00.560Z,9.279970
2024-03-01T01:41:00.504Z,9.279892
2024-03-01T01:42:00.365Z,9.279971
2024-03-01T01:43:00.347Z,9.280017
2024-03-01T01:44:00.329Z,9.279932
2024-03-01T01:45:00.311Z,9.279992
2024-03-01T01:46:01.318Z,9.279961
2024-03-01T01:47:00.295Z,9.279884
2024-03-01T01:48:00.274Z,9.279879
2024-03-01T01:49:00.254Z,9.279933
2024-03-01T01:50:00.208Z,9.279862
2024-03-01T01:51:01.227Z,9.279804
2024-03-01T01:52:00.264Z,9.279928
2024-03-01T01:53:00.189Z,9.279929
2024-03-01T01:54:00.164Z,9.279945
2024-03-01T01:55:00.168Z,9.279955
2024-03-01T01:56:00.651Z,9.280019
2024-03-01T01:57:00.093Z,9.279965
2024-03-01T01:58:00.156Z,9.279929
2024-03-01T01:59:00.063Z,9.279920
2024-03-01T02:00:00.005Z,9.280005
2024-03-01T02:01:00.055Z,9.280058
2024-03-01T02:02:00.263Z,9.280035
2024-03-01T02:03:00.602Z,9.280070
2024-03-01T02:03:59.968Z,9.280156
2024-03-01T02:04:59.945Z,9.280076
2024-03-01T02:05:59.936Z,9.280072
2024-03-01T02:06:59.938Z,9.280028
2024-03-01T02:07:59.882Z,9.279984
2024-03-01T02:08:59.884Z,9.279984
2024-03-01T02:10:00.905Z,9.279893
2024-03-01T02:10:59.821Z,9.280015
2024-03-01T02:11:59.852Z,9.280050
2024-03-01T02:12:59.857Z,9.279869
2024-03-01T02:13:59.802Z,9.279302
2024-03-01T02:14:59.743Z,9.279705
2024-03-01T02:15:59.770Z,9.279915
2024-03-01T02:16:59.709Z,9.279928
2024-03-01T02:17:59.869Z,9.279901
2024-03-01T02:18:59.710Z,9.279956
2024-03-01T02:19:59.697Z,9.279967
2024-03-01T02:20:59.640Z,9.279953
2024-03-01T02:21:59.699Z,9.280053
2024-03-01T02:22:59.638Z,9.280007
2024-03-01T02:23:59.593Z,9.279915
2024-03-01T02:24:59.594Z,9.279704
2024-03-01T02:25:59.543Z,9.279924
2024-03-01T02:27:02.596Z,9.279846
2024-03-01T02:28:00.524Z,9.279890
2024-03-01T02:28:59.490Z,9.280008
2024-03-01T02:29:59.498Z,9.280024
2024-03-01T02:30:59.552Z,9.279932
2024-03-01T02:31:59.422Z,9.279897
2024-03-01T02:32:59.427Z,9.279871
2024-03-01T02:33:59.507Z,9.279952
2024-03-01T02:34:59.379Z,9.279990
2024-03-01T02:35:59.382Z,9.279824
2024-03-01T02:36:59.393Z,9.279836
2024-03-01T02:37:59.305Z,9.279942
2024-03-01T02:38:59.312Z,9.279904
2024-03-01T02:39:59.311Z,9.279740
2024-03-01T02:40:59.254Z,9.279788
2024-03-01T02:41:59.361Z,9.279976
2024-03-01T02:42:59.261Z,9.279939
2024-03-01T02:43:59.230Z,9.279886
2024-03-01T02:44:59.210Z,9.279803
2024-03-01T02:45:59.199Z,9.279906
2024-03-01T02:46:59.221Z,9.279869
2024-03-01T02:47:59.173Z,9.279891
2024-03-01T02:48:59.134Z,9.279892
2024-03-01T02:49:59.110Z,9.279883
2024-03-01T02:50:59.082Z,9.280008
2024-03-01T02:51:59.126Z,9.279825
2024-03-01T02:52:59.088Z,9.279917
2024-03-01T02:53:59.037Z,9.279918
2024-03-01T02:54:59.024Z,9.279913
2024-03-01T02:55:59.000Z,9.279906
2024-03-01T02:56:58.972Z,9.279922
2024-03-01T02:57:59.170Z,9.279946
2024-03-01T02:58:58.937Z,9.279885
2024-03-01T02:59:58.919Z,9.279962
2024-03-01T03:00:59.058Z,9.279940
2024-03-01T03:01:58.907Z,9.279945
2024-03-01T03:02:58.868Z,9.279905
2024-03-01T03:03:59.001Z,9.279892
2024-03-01T03:04:58.830Z,9.279917
2024-03-01T03:05:58.819Z,9.279867
2024-03-01T03:06:59.297Z,9.279882
2024-03-01T03:08:00.010Z,9.279943
2024-03-01T03:08:58.788Z,9.279930
2024-03-01T03:09:58.748Z,9.279942
2024-03-01T03:10:58.751Z,9.279825
2024-03-01T03:11:58.695Z,9.279812
2024-03-01T03:12:58.745Z,9.279876
2024-03-01T03:13:58.668Z,9.279977
2024-03-01T03:14:58.670Z,9.279885
2024-03-01T03:15:58.671Z,9.279884
2024-03-01T03:16:58.608Z,9.279897
2024-03-01T03:17:58.622Z,9.279909
2024-03-01T03:18:58.585Z,9.279759
2024-03-01T03:19:58.588Z,9.279772
2024-03-01T03:20:58.529Z,9.279847
2024-03-01T03:21:58.662Z,9.279699
2024-03-01T03:22:58.492Z,9.279626
2024-03-01T03:23:58.478Z,9.279698
2024-03-01T03:24:58.536Z,9.279696
2024-03-01T03:25:58.468Z,9.279754
2024-03-01T03:26:58.417Z,9.279777
2024-03-01T03:27:58.429Z,9.279720
2024-03-01T03:28:58.381Z,9.279719
2024-03-01T03:29:58.368Z,9.279902
2024-03-01T03:30:58.396Z,9.279903
2024-03-01T03:31:58.345Z,9.279839
2024-03-01T03:32:58.363Z,9.279803
2024-03-01T03:33:58.300Z,9.279778
2024-03-01T03:34:58.279Z,9.279794
2024-03-01T03:35:58.275Z,9.279821
2024-03-01T03:36:58.283Z,9.279800
2024-03-01T03:37:58.233Z,9.279765
2024-03-01T03:38:58.206Z,9.279800
2024-03-01T03:39:58.191Z,9.279802
2024-03-01T03:40:58.164Z,9.279909
2024-03-01T03:41:58.186Z,9.279809
2024-03-01T03:42:58.177Z,9.279820
2024-03-01T03:43:58.123Z,9.279840
2024-03-01T03:44:58.098Z,9.279792
2024-03-01T03:45:58.101Z,9.279926
2024-03-01T03:46:58.055Z,9.279951
2024-03-01T03:47:58.088Z,9.279765
2024-03-01T03:48:58.040Z,9.279918
2024-03-01T03:49:58.007Z,9.279846
2024-03-01T03:50:57.992Z,9.279966
2024-03-01T03:51:58.007Z,9.279927
2024-03-01T03:52:57.978Z,9.279931
2024-03-01T03:53:57.957Z,9.279914
2024-03-01T03:54:57.934Z,9.279988
2024-03-01T03:55:57.909Z,9.279976
2024-03-01T03:56:57.879Z,9.279992
2024-03-01T03:57:57.917Z,9.279965
2024-03-01T03:58:57.961Z,9.279856
2024-03-01T03:59:57.837Z,9.279972
2024-03-01T04:00:57.929Z,9.279971
2024-03-01T04:01:57.863Z,9.279933
2024-03-01T04:02:57.775Z,9.280002
2024-03-01T04:03:57.821Z,9.279845
2024-03-01T04:04:57.734Z,9.279852
2024-03-01T04:05:57.717Z,9.279946
2024-03-01T04:06:57.721Z,9.279923
2024-03-01T04:07:57.678Z,9.279965
2024-03-01T04:08:57.663Z,9.279950
2024-03-01T04:09:57.806Z,9.279897
2024-03-01T04:10:57.637Z,9.279907
2024-03-01T04:11:57.625Z,9.279963
2024-03-01T04:12:57.614Z,9.280012
2024-03-01T04:13:57.576Z,9.280028
2024-03-01T04:14:57.594Z,9.279953
2024-03-01T04:15:57.574Z,9.279946
2024-03-01T04:16:57.523Z,9.279904
2024-03-01T04:17:57.533Z,9.279887
2024-03-01T04:18:57.562Z,9.279848
2024-03-01T04:19:57.449Z,9.279990
2024-03-01T04:20:57.491Z,9.279971
2024-03-01T04:21:57.444Z,9.279974
2024-03-01T04:22:57.425Z,9.279865
2024-03-01T04:23:57.400Z,9.279959
2024-03-01T04:24:57.421Z,9.279943
2024-03-01T04:25:57.508Z,9.279978
2024-03-01T04:26:58.324Z,9.279975
2024-03-01T04:27:57.369Z,9.279922
2024-03-01T04:28:57.287Z,9.279840
2024-03-01T04:29:57.284Z,9.279953
2024-03-01T04:30:57.303Z,9.279956
2024-03-01T04:31:57.276Z,9.279979
2024-03-01T04:32:57.234Z,9.280000
2024-03-01T04:33:57.226Z,9.279902
2024-03-01T04:34:57.205Z,9.280008
2024-03-01T04:35:57.173Z,9.279993
2024-03-01T04:36:57.186Z,9.279912
2024-03-01T04:37:57.135Z,9.279944
2024-03-01T04:38:57.098Z,9.279885
2024-03-01T04:39:57.163Z,9.279823
2024-03-01T04:40:57.088Z,9.279851
2024-03-01T04:41:57.159Z,9.279974
2024-03-01T04:42:57.082Z,9.279957
2024-03-01T04:43:57.034Z,9.279958
2024-03-01T04:44:57.010Z,9.279894
2024-03-01T04:45:56.996Z,9.279878
2024-03-01T04:46:56.963Z,9.279861
2024-03-01T04:47:56.980Z,9.280061
2024-03-01T04:48:57.011Z,9.280075
2024-03-01T04:49:56.912Z,9.279935
2024-03-01T04:50:56.874Z,9.279930
2024-03-01T04:51:56.877Z,9.279903
2024-03-01T04:52:56.859Z,9.280022
2024-03-01T04:53:56.856Z,9.280070
2024-03-01T04:54:56.878Z,9.280059
2024-03-01T04:55:56.782Z,9.280042
2024-03-01T04:56:56.789Z,9.280027
2024-03-01T04:57:56.805Z,9.279902
2024-03-01T04:58:56.873Z,9.279906
2024-03-01T04:59:56.704Z,9.279991
2024-03-01T05:00:56.793Z,9.279984
2024-03-01T05:01:57.676Z,9.279991
2024-03-01T05:02:56.649Z,9.279935
2024-03-01T05:03:56.712Z,9.279949
2024-03-01T05:04:56.729Z,9.279931
2024-03-01T05:05:56.615Z,9.279914
2024-03-01T05:06:56.589Z,9.279943
2024-03-01T05:07:56.580Z,9.280012
2024-03-01T05:08:56.543Z,9.279927
2024-03-01T05:09:56.614Z,9.279951
2024-03-01T05:10:56.677Z,9.280042
2024-03-01T05:11:56.522Z,9.280055
2024-03-01T05:12:56.528Z,9.280025
2024-03-01T05:13:56.563Z,9.280066
2024-03-01T05:14:56.452Z,9.279934
2024-03-01T05:15:56.575Z,9.279990
2024-03-01T05:16:56.430Z,9.279958
2024-03-01T05:17:56.446Z,9.279890
2024-03-01T05:18:56.413Z,9.279976
2024-03-01T05:19:56.362Z,9.279964
2024-03-01T05:20:56.378Z,9.280008
2024-03-01T05:21:56.342Z,9.280046
2024-03-01T05:22:56.306Z,9.280058
2024-03-01T05:23:56.303Z,9.280002
2024-03-01T05:24:56.309Z,9.279986
2024-03-01T05:25:56.263Z,9.279999
2024-03-01T05:26:56.249Z,9.280025
2024-03-01T05:27:56.237Z,9.279947
2024-03-01T05:28:56.211Z,9.279895
2024-03-01T05:29:56.230Z,9.280019
2024-03-01T05:31:03.616Z,9.280012
2024-03-01T05:31:57.212Z,9.279956
2024-03-01T05:32:56.177Z,9.279902
2024-03-01T05:33:56.157Z,9.279982
2024-03-01T05:34:56.070Z,9.279803
2024-03-01T05:35:56.643Z,9.279781
2024-03-01T05:36:56.054Z,9.279892
2024-03-01T05:37:56.072Z,9.279934
2024-03-01T05:38:56.018Z,9.279956
2024-03-01T05:39:56.704Z,9.280005
2024-03-01T05:40:56.336Z,9.279860
2024-03-01T05:41:56.959Z,9.279930
2024-03-01T05:42:55.973Z,9.279808
2024-03-01T05:43:55.929Z,9.279999
2024-03-01T05:44:55.917Z,9.279963
2024-03-01T05:45:56.029Z,9.279949
2024-03-01T05:46:55.865Z,9.279877
2024-03-01T05:47:55.851Z,9.279989
2024-03-01T05:48:56.650Z,9.280036
2024-03-01T05:49:55.831Z,9.279921
2024-03-01T05:50:55.782Z,9.280043
2024-03-01T05:51:55.814Z,9.279931
2024-03-01T05:52:55.774Z,9.280117
2024-03-01T05:53:55.761Z,9.280029
2024-03-01T05:54:55.729Z,9.279944
2024-03-01T05:55:55.699Z,9.280095
2024-03-01T05:56:55.686Z,9.280075
2024-03-01T05:57:55.678Z,9.280031
2024-03-01T05:58:55.634Z,9.279993
2024-03-01T05:59:55.642Z,9.279922
2024-03-01T06:00:55.656Z,9.279430
2024-03-01T06:01:55.753Z,9.279933
2024-03-01T06:02:58.381Z,9.279963
2024-03-01T06:03:56.562Z,9.279958
2024-03-01T06:04:55.653Z,9.279957
2024-03-01T06:05:55.571Z,9.279960
2024-03-01T06:06:55.536Z,9.279931
2024-03-01T06:07:55.481Z,9.279920
2024-03-01T06:08:55.484Z,9.279935
2024-03-01T06:09:55.481Z,9.279990
2024-03-01T06:10:55.495Z,9.279963
2024-03-01T06:11:55.451Z,9.279959
2024-03-01T06:12:58.943Z,9.279941
2024-03-01T06:13:55.390Z,9.279885
2024-03-01T06:14:55.360Z,9.279927
2024-03-01T06:15:55.502Z,9.279992
2024-03-01T06:16:55.335Z,9.279940
2024-03-01T06:17:55.525Z,9.279954
2024-03-01T06:18:55.335Z,9.279995
2024-03-01T06:19:55.296Z,9.280037
2024-03-01T06:20:55.241Z,9.280027
2024-03-01T06:21:55.307Z,9.279899
2024-03-01T06:22:55.220Z,9.279890
2024-03-01T06:23:55.202Z,9.279918
2024-03-01T06:24:55.225Z,9.279986
2024-03-01T06:25:55.169Z,9.280016
2024-03-01T06:26:55.149Z,9.280102
2024-03-01T06:27:55.177Z,9.280023
2024-03-01T06:28:55.113Z,9.280016
2024-03-01T06:29:55.153Z,9.279782
2024-03-01T06:30:55.111Z,9.279914
2024-03-01T06:31:55.054Z,9.279971
2024-03-01T06:32:55.351Z,9.279943
2024-03-01T06:33:55.067Z,9.279906
2024-03-01T06:34:54.996Z,9.279823
2024-03-01T06:35:54.971Z,9.279950
2024-03-01T06:36:54.991Z,9.279956
2024-03-01T06:37:54.966Z,9.279985
2024-03-01T06:38:54.915Z,9.279930
2024-03-01T06:39:54.971Z,9.279963
2024-03-01T06:40:54.895Z,9.279928
2024-03-01T06:41:54.888Z,9.279755
2024-03-01T06:42:54.889Z,9.280000
2024-03-01T06:43:54.870Z,9.279964
2024-03-01T06:44:54.821Z,9.280102
2024-03-01T06:45:54.833Z,9.280062
2024-03-01T06:46:54.777Z,9.280062
2024-03-01T06:47:54.826Z,9.280062
2024-03-01T06:48:54.812Z,9.279976
2024-03-01T06:49:54.713Z,9.280017
2024-03-01T06:50:54.710Z,9.280072
2024-03-01T06:51:54.679Z,9.279995
2024-03-01T06:52:54.675Z,9.279994
2024-03-01T06:53:54.629Z,9.280018
2024-03-01T06:54:54.738Z,9.280096
2024-03-01T06:55:54.622Z,9.280031
2024-03-01T06:56:54.592Z,9.280069
2024-03-01T06:57:54.635Z,9.279950
2024-03-01T06:58:54.563Z,9.280013
2024-03-01T06:59:54.569Z,9.280009
2024-03-01T07:00:54.585Z,9.279889
2024-03-01T07:01:54.545Z,9.280066
2024-03-01T07:02:54.487Z,9.280039
2024-03-01T07:03:54.500Z,9.280080
2024-03-01T07:04:54.489Z,9.279896
2024-03-01T07:05:54.583Z,9.279926
2024-03-01T07:06:54.460Z,9.280006
2024-03-01T07:07:55.384Z,9.279956
2024-03-01T07:08:54.366Z,9.280049
2024-03-01T07:09:54.417Z,9.280142
2024-03-01T07:10:54.428Z,9.279912
2024-03-01T07:11:54.319Z,9.279953
2024-03-01T07:12:54.370Z,9.280154
2024-03-01T07:13:54.282Z,9.280132
2024-03-01T07:14:54.270Z,9.280015
2024-03-01T07:15:54.285Z,9.280010
2024-03-01T07:16:54.256Z,9.280024
2024-03-01T07:17:54.237Z,9.280129
2024-03-01T07:18:54.207Z,9.280093
2024-03-01T07:19:54.163Z,9.280118
2024-03-01T07:20:54.141Z,9.280105
2024-03-01T07:21:54.320Z,9.280006
2024-03-01T07:22:54.143Z,9.279965
2024-03-01T07:23:54.098Z,9.279719
2024-03-01T07:24:54.088Z,9.279827
2024-03-01T07:25:54.050Z,9.279927
2024-03-01T07:26:54.050Z,9.279929
2024-03-01T07:27:54.113Z,9.280012
2024-03-01T07:28:54.000Z,9.279996
2024-03-01T07:29:53.977Z,9.279981
2024-03-01T07:30:54.059Z,9.280070
2024-03-01T07:31:53.944Z,9.280021
2024-03-01T07:32:53.975Z,9.279974
2024-03-01T07:33:54.008Z,9.279950
2024-03-01T07:34:53.898Z,9.280087
2024-03-01T07:35:53.888Z,9.280049
2024-03-01T07:36:53.917Z,9.279979
2024-03-01T07:37:53.955Z,9.280014
2024-03-01T07:38:53.855Z,9.279987
2024-03-01T07:39:53.868Z,9.279868
2024-03-01T07:40:53.802Z,9.279949
2024-03-01T07:41:53.782Z,9.279913
2024-03-01T07:42:53.801Z,9.279885
2024-03-01T07:43:53.866Z,9.279884
2024-03-01T07:44:53.713Z,9.279917
2024-03-01T07:45:53.689Z,9.279872
2024-03-01T07:46:53.687Z,9.279894
2024-03-01T07:47:53.708Z,9.279994
2024-03-01T07:48:53.666Z,9.279999
2024-03-01T07:49:53.652Z,9.279979
2024-03-01T07:50:53.606Z,9.279853
2024-03-01T07:51:53.854Z,9.279948
2024-03-01T07:52:53.567Z,9.279951
2024-03-01T07:53:53.660Z,9.279974
2024-03-01T07:54:53.570Z,9.279977
2024-03-01T07:55:53.574Z,9.279908
2024-03-01T07:56:53.501Z,9.279922
2024-03-01T07:57:53.531Z,9.279935
2024-03-01T07:58:53.514Z,9.279926
2024-03-01T07:59:53.434Z,9.279975
2024-03-01T08:00:53.496Z,9.279818
2024-03-01T08:01:53.441Z,9.280023
2024-03-01T08:02:53.403Z,9.279905
2024-03-01T08:03:55.484Z,9.279902
2024-03-01T08:04:54.415Z,9.279901
2024-03-01T08:05:53.351Z,9.279894
2024-03-01T08:06:53.379Z,9.279943
2024-03-01T08:07:53.298Z,9.279999
2024-03-01T08:08:53.275Z,9.279942
2024-03-01T08:09:53.307Z,9.279870
2024-03-01T08:10:53.270Z,9.279829
2024-03-01T08:11:53.265Z,9.279873
2024-03-01T08:12:53.257Z,9.279891
2024-03-01T08:13:53.198Z,9.279860
2024-03-01T08:14:53.198Z,9.279920
2024-03-01T08:15:53.212Z,9.279854
2024-03-01T08:16:53.178Z,9.279858
2024-03-01T08:17:53.155Z,9.279917
2024-03-01T08:18:53.147Z,9.279935
2024-03-01T08:19:53.078Z,9.279971
2024-03-01T08:20:53.080Z,9.279987
2024-03-01T08:21:53.070Z,9.279983
2024-03-01T08:22:53.168Z,9.279980
2024-03-01T08:23:53.026Z,9.279866
2024-03-01T08:24:53.022Z,9.279854
2024-03-01T08:25:53.092Z,9.279984
2024-03-01T08:26:52.971Z,9.279973
2024-03-01T08:27:53.029Z,9.279972
2024-03-01T08:28:52.949Z,9.279976
2024-03-01T08:29:52.922Z,9.279909
2024-03-01T08:30:52.951Z,9.279933
2024-03-01T08:31:52.870Z,9.279875
2024-03-01T08:32:52.908Z,9.279824
2024-03-01T08:33:52.919Z,9.279856
2024-03-01T08:34:52.863Z,9.279937
2024-03-01T08:35:52.821Z,9.279901
2024-03-01T08:36:52.872Z,9.279952
2024-03-01T08:37:52.786Z,9.279942
2024-03-01T08:38:52.808Z,9.279829
2024-03-01T08:39:52.872Z,9.279833
2024-03-01T08:40:52.761Z,9.279905
2024-03-01T08:41:52.730Z,9.279850
2024-03-01T08:42:52.815Z,9.279837
2024-03-01T08:43:52.679Z,9.279824
2024-03-01T08:44:52.774Z,9.279856
2024-03-01T08:45:52.656Z,9.279860
2024-03-01T08:46:52.671Z,9.279890
2024-03-01T08:47:52.730Z,9.279943
2024-03-01T08:48:52.759Z,9.279905
2024-03-01T08:49:53.808Z,9.279860
2024-03-01T08:50:53.542Z,9.279889
2024-03-01T08:51:52.545Z,9.279805
2024-03-01T08:52:52.571Z,9.279943
2024-03-01T08:53:52.483Z,9.279987
2024-03-01T08:54:52.744Z,9.279924
2024-03-01T08:55:52.726Z,9.279918
2024-03-01T08:56:52.543Z,9.279967
2024-03-01T08:57:52.433Z,9.279950
2024-03-01T08:58:52.433Z,9.279938
2024-03-01T08:59:52.374Z,9.279954
2024-03-01T09:00:52.406Z,9.279895
2024-03-01T09:01:52.331Z,9.279816
2024-03-01T09:02:52.303Z,9.279738
2024-03-01T09:03:52.255Z,9.279814
2024-03-01T09:04:52.276Z,9.279888
2024-03-01T09:05:52.238Z,9.279906
2024-03-01T09:06:52.243Z,9.279829
2024-03-01T09:07:52.183Z,9.279860
2024-03-01T09:08:52.166Z,9.280032
2024-03-01T09:09:52.132Z,9.279738
2024-03-01T09:10:52.218Z,9.279807
2024-03-01T09:11:52.141Z,9.279841
2024-03-01T09:12:52.075Z,9.279905
2024-03-01T09:13:52.047Z,9.279946
2024-03-01T09:14:52.045Z,9.279960
2024-03-01T09:15:52.021Z,9.279881
2024-03-01T09:16:52.005Z,9.279836
2024-03-01T09:17:52.060Z,9.279797
2024-03-01T09:18:51.937Z,9.279863
2024-03-01T09:19:51.932Z,9.279945
2024-03-01T09:20:51.914Z,9.279985
2024-03-01T09:21:51.876Z,9.280023
2024-03-01T09:22:51.887Z,9.279791
2024-03-01T09:23:51.850Z,9.279906
2024-03-01T09:24:51.825Z,9.279826
2024-03-01T09:25:51.804Z,9.279901
2024-03-01T09:26:51.793Z,9.279794
2024-03-01T09:27:51.748Z,9.280056
2024-03-01T09:28:51.762Z,9.280091
2024-03-01T09:29:51.706Z,9.280218
2024-03-01T09:30:51.937Z,9.279862
2024-03-01T09:31:51.676Z,9.279939
2024-03-01T09:32:51.739Z,9.279934
2024-03-01T09:33:51.670Z,9.279892
2024-03-01T09:34:51.618Z,9.279871
2024-03-01T09:35:51.898Z,9.279819
2024-03-01T09:36:51.563Z,9.279708
2024-03-01T09:37:51.558Z,9.279858
2024-03-01T09:38:51.517Z,9.279841
2024-03-01T09:39:51.582Z,9.279851
2024-03-01T09:40:51.738Z,9.279805
2024-03-01T09:41:51.470Z,9.279670
2024-03-01T09:42:51.454Z,9.279687
2024-03-01T09:43:51.412Z,9.279770
2024-03-01T09:44:51.429Z,9.279672
2024-03-01T09:45:51.487Z,9.279610
2024-03-01T09:46:51.363Z,9.279487
2024-03-01T09:47:51.369Z,9.279580
2024-03-01T09:48:51.303Z,9.279755
2024-03-01T09:49:51.280Z,9.279707
2024-03-01T09:50:51.294Z,9.279805
2024-03-01T09:51:51.228Z,9.279920
2024-03-01T09:52:51.214Z,9.279994
2024-03-01T09:53:51.209Z,9.279889
2024-03-01T09:54:51.183Z,9.279860
2024-03-01T09:55:51.215Z,9.279968
2024-03-01T09:56:51.144Z,9.279806
2024-03-01T09:57:51.138Z,9.279867
2024-03-01T09:58:51.107Z,9.279989
2024-03-01T09:59:51.078Z,9.279956
2024-03-01T10:00:51.104Z,9.279916
2024-03-01T10:01:51.183Z,9.279944
2024-03-01T10:02:51.011Z,9.279838
2024-03-01T10:03:50.995Z,9.279836
2024-03-01T10:04:51.063Z,9.279956
2024-03-01T10:05:51.981Z,9.279957
2024-03-01T10:06:52.100Z,9.279763
2024-03-01T10:07:50.919Z,9.279743
2024-03-01T10:08:50.898Z,9.279746
2024-03-01T10:09:50.879Z,9.279863
2024-03-01T10:10:51.988Z,9.279854
2024-03-01T10:11:50.894Z,9.279823
2024-03-01T10:12:50.848Z,9.279951
2024-03-01T10:13:50.810Z,9.279834
2024-03-01T10:14:50.778Z,9.279913
2024-03-01T10:15:50.756Z,9.279894
2024-03-01T10:16:50.744Z,9.279905
2024-03-01T10:17:50.941Z,9.279880
2024-03-01T10:18:50.697Z,9.279922
2024-03-01T10:19:50.683Z,9.279991
2024-03-01T10:20:50.682Z,9.280085
2024-03-01T10:21:50.665Z,9.280112
2024-03-01T10:22:50.716Z,9.280150
2024-03-01T10:23:50.654Z,9.279988
2024-03-01T10:24:50.637Z,9.279912
2024-03-01T10:25:51.978Z,9.279980
2024-03-01T10:26:51.548Z,9.279870
2024-03-01T10:27:50.542Z,9.279912
2024-03-01T10:28:50.556Z,9.280067
2024-03-01T10:29:50.520Z,9.280146
2024-03-01T10:30:50.474Z,9.280114
2024-03-01T10:31:50.495Z,9.280029
2024-03-01T10:32:50.467Z,9.279997
2024-03-01T10:33:51.827Z,9.280020
2024-03-01T10:34:50.461Z,9.280298
2024-03-01T10:35:50.385Z,9.280095
2024-03-01T10:36:50.346Z,9.280082
2024-03-01T10:37:50.400Z,9.279733
2024-03-01T10:38:50.314Z,9.279878
2024-03-01T10:39:50.322Z,9.280036
2024-03-01T10:40:50.309Z,9.280001
2024-03-01T10:41:50.351Z,9.279899
2024-03-01T10:42:50.224Z,9.279906
2024-03-01T10:43:50.200Z,9.279835
2024-03-01T10:44:50.193Z,9.279700
2024-03-01T10:45:50.209Z,9.279675
2024-03-01T10:46:50.144Z,9.279851
2024-03-01T10:47:50.144Z,9.279942
2024-03-01T10:48:50.105Z,9.279896
2024-03-01T10:49:50.183Z,9.279841
2024-03-01T10:50:50.124Z,9.279938
2024-03-01T10:51:50.059Z,9.279961
2024-03-01T10:52:50.076Z,9.279895
2024-03-01T10:53:49.984Z,9.279912
2024-03-01T10:54:49.975Z,9.279823
2024-03-01T10:55:49.968Z,9.279876
2024-03-01T10:56:49.933Z,9.280018
2024-03-01T10:57:49.906Z,9.280155
2024-03-01T10:58:49.948Z,9.280086
2024-03-01T10:59:49.859Z,9.280014
2024-03-01T11:00:49.884Z,9.280005
2024-03-01T11:01:49.965Z,9.280019
2024-03-01T11:02:49.800Z,9.280042
2024-03-01T11:03:50.775Z,9.279996
2024-03-01T11:04:49.953Z,9.280027
2024-03-01T11:05:49.752Z,9.279822
2024-03-01T11:06:49.738Z,9.279946
2024-03-01T11:07:49.742Z,9.279934
2024-03-01T11:08:49.693Z,9.279840
2024-03-01T11:09:49.663Z,9.279798
2024-03-01T11:10:49.745Z,9.279872
2024-03-01T11:11:49.650Z,9.279910
2024-03-01T11:12:49.647Z,9.279794
2024-03-01T11:13:49.629Z,9.279607
2024-03-01T11:14:51.160Z,9.279776
2024-03-01T11:15:49.619Z,9.279901
2024-03-01T11:16:49.564Z,9.279898
2024-03-01T11:17:49.614Z,9.279950
2024-03-01T11:18:49.535Z,9.279937
2024-03-01T11:19:49.488Z,9.279881
2024-03-01T11:20:49.449Z,9.279896
2024-03-01T11:21:49.549Z,9.279890
2024-03-01T11:22:49.414Z,9.279979
2024-03-01T11:23:49.474Z,9.280026
2024-03-01T11:24:49.392Z,9.279987
2024-03-01T11:25:49.396Z,9.279983
2024-03-01T11:26:49.373Z,9.280064
2024-03-01T11:27:49.342Z,9.280058
2024-03-01T11:28:49.314Z,9.279968
2024-03-01T11:29:49.353Z,9.280184
2024-03-01T11:30:49.281Z,9.280062
2024-03-01T11:31:49.285Z,9.279971
2024-03-01T11:32:49.277Z,9.279857
2024-03-01T11:33:49.239Z,9.279832
2024-03-01T11:34:49.256Z,9.279968
2024-03-01T11:35:49.204Z,9.280007
2024-03-01T11:36:49.177Z,9.279994
2024-03-01T11:37:49.309Z,9.280039
2024-03-01T11:38:49.148Z,9.279948
2024-03-01T11:39:49.139Z,9.279914
2024-03-01T11:40:49.223Z,9.280011
2024-03-01T11:41:49.123Z,9.280049
2024-03-01T11:42:49.094Z,9.279946
2024-03-01T11:43:50.213Z,9.280033